createdAt,value
2024-05-09T00:00:30.301Z,26.93
2024-05-09T00:01:23.454Z,26.94
2024-05-09T00:02:22.422Z,26.93
2024-05-09T00:03:22.474Z,26.93
2024-05-09T00:04:22.473Z,26.93
2024-05-09T00:05:22.462Z,26.90
2024-05-09T00:06:22.406Z,26.93
2024-05-09T00:07:22.426Z,26.91
2024-05-09T00:08:22.449Z,26.93
2024-05-09T00:09:22.424Z,26.91
2024-05-09T00:10:29.138Z,26.94
2024-05-09T00:11:23.535Z,26.91
2024-05-09T00:12:22.498Z,26.91
2024-05-09T00:13:22.402Z,26.91
2024-05-09T00:14:22.486Z,26.94
2024-05-09T00:15:22.431Z,26.91
2024-05-09T00:16:22.422Z,26.93
2024-05-09T00:17:22.460Z,26.89
2024-05-09T00:18:22.546Z,26.91
2024-05-09T00:19:22.569Z,26.93
2024-05-09T00:20:28.408Z,26.90
2024-05-09T00:21:23.378Z,26.91
2024-05-09T00:22:22.416Z,26.90
2024-05-09T00:23:22.470Z,26.93
2024-05-09T00:24:22.393Z,26.93
2024-05-09T00:25:22.468Z,26.91
2024-05-09T00:26:22.504Z,26.90
2024-05-09T00:27:22.448Z,26.90
2024-05-09T00:28:22.388Z,26.91
2024-05-09T00:29:22.464Z,26.91
2024-05-09T00:30:31.069Z,26.90
2024-05-09T00:31:23.432Z,26.90
2024-05-09T00:32:22.555Z,26.91
2024-05-09T00:33:22.600Z,26.91
2024-05-09T00:34:22.478Z,26.90
2024-05-09T00:35:22.531Z,26.91
2024-05-09T00:36:22.420Z,26.87
2024-05-09T00:37:22.420Z,26.90
2024-05-09T00:38:22.476Z,26.90
2024-05-09T00:39:22.431Z,26.89
2024-05-09T00:40:30.650Z,26.91
2024-05-09T00:41:23.440Z,26.90
2024-05-09T00:42:22.396Z,26.90
2024-05-09T00:43:22.472Z,26.90
2024-05-09T00:44:22.531Z,26.90
2024-05-09T00:45:22.425Z,26.90
2024-05-09T00:46:23.339Z,26.87
2024-05-09T00:47:22.604Z,26.90
2024-05-09T00:48:22.609Z,26.89
2024-05-09T00:49:22.566Z,26.91
2024-05-09T00:50:29.464Z,26.91
2024-05-09T00:51:23.501Z,26.90
2024-05-09T00:52:22.468Z,26.89
2024-05-09T00:53:22.487Z,26.90
2024-05-09T00:54:22.434Z,26.90
2024-05-09T00:55:22.409Z,26.90
2024-05-09T00:56:22.523Z,26.91
2024-05-09T00:57:22.460Z,26.89
2024-05-09T00:58:22.884Z,26.89
2024-05-09T00:59:22.516Z,26.91
2024-05-09T01:00:30.728Z,26.89
2024-05-09T01:01:23.490Z,26.89
2024-05-09T01:02:22.555Z,26.91
2024-05-09T01:03:23.191Z,26.89
2024-05-09T01:04:22.529Z,26.90
2024-05-09T01:05:22.470Z,26.89
2024-05-09T01:06:22.448Z,26.89
2024-05-09T01:07:22.468Z,26.89
2024-05-09T01:08:22.486Z,26.87
2024-05-09T01:09:22.476Z,26.90
2024-05-09T01:10:28.157Z,26.89
2024-05-09T01:11:23.577Z,26.89
2024-05-09T01:12:22.615Z,26.87
2024-05-09T01:13:22.492Z,26.89
2024-05-09T01:14:22.495Z,26.90
2024-05-09T01:15:22.493Z,26.89
2024-05-09T01:16:22.936Z,26.87
2024-05-09T01:17:22.606Z,26.87
2024-05-09T01:18:22.634Z,26.90
2024-05-09T01:19:22.581Z,26.87
2024-05-09T01:20:32.097Z,26.89
2024-05-09T01:21:23.498Z,26.90
2024-05-09T01:22:22.465Z,26.89
2024-05-09T01:23:22.548Z,26.87
2024-05-09T01:24:22.479Z,26.89
2024-05-09T01:25:22.491Z,26.87
2024-05-09T01:26:22.552Z,26.87
2024-05-09T01:27:22.467Z,26.87
2024-05-09T01:28:22.497Z,26.89
2024-05-09T01:29:22.645Z,26.89
2024-05-09T01:30:31.243Z,26.87
2024-05-09T01:31:23.523Z,26.89
2024-05-09T01:32:22.718Z,26.90
2024-05-09T01:33:22.636Z,26.89
2024-05-09T01:34:22.639Z,26.89
2024-05-09T01:35:22.634Z,26.86
2024-05-09T01:36:22.532Z,26.87
2024-05-09T01:37:22.498Z,26.87
2024-05-09T01:38:22.533Z,26.87
2024-05-09T01:39:22.493Z,26.87
2024-05-09T01:40:29.192Z,26.89
2024-05-09T01:41:23.545Z,26.90
2024-05-09T01:42:22.481Z,26.89
2024-05-09T01:43:22.532Z,26.89
2024-05-09T01:44:22.676Z,26.89
2024-05-09T01:45:22.486Z,26.89
2024-05-09T01:46:22.526Z,26.89
2024-05-09T01:47:22.657Z,26.86
2024-05-09T01:48:22.712Z,26.87
2024-05-09T01:49:22.725Z,26.87
2024-05-09T01:50:34.114Z,26.86
2024-05-09T01:51:23.574Z,26.87
2024-05-09T01:52:22.501Z,26.85
2024-05-09T01:53:22.510Z,26.89
2024-05-09T01:54:22.546Z,26.87
2024-05-09T01:55:22.554Z,26.86
2024-05-09T01:56:22.535Z,26.86
2024-05-09T01:57:22.492Z,26.89
2024-05-09T01:58:22.529Z,26.87
2024-05-09T01:59:22.624Z,26.87
2024-05-09T02:00:33.197Z,26.89
2024-05-09T02:01:23.630Z,26.87
2024-05-09T02:02:22.556Z,26.86
2024-05-09T02:03:22.754Z,26.87
2024-05-09T02:04:22.673Z,26.87
2024-05-09T02:05:22.591Z,26.87
2024-05-09T02:06:22.547Z,26.86
2024-05-09T02:07:22.530Z,26.86
2024-05-09T02:08:22.664Z,26.86
2024-05-09T02:09:22.517Z,26.85
2024-05-09T02:10:26.430Z,26.85
2024-05-09T02:11:23.646Z,26.87
2024-05-09T02:12:22.614Z,26.87
2024-05-09T02:13:22.577Z,26.86
2024-05-09T02:14:22.560Z,26.86
2024-05-09T02:15:22.542Z,26.87
2024-05-09T02:16:22.538Z,26.86
2024-05-09T02:17:22.922Z,26.86
2024-05-09T02:18:22.871Z,26.86
2024-05-09T02:19:22.736Z,26.86
2024-05-09T02:21:22.586Z,26.86
2024-05-09T02:22:22.594Z,26.86
2024-05-09T02:23:22.674Z,26.87
2024-05-09T02:24:22.706Z,26.85
2024-05-09T02:25:22.714Z,26.89
2024-05-09T02:26:22.823Z,26.86
2024-05-09T02:27:22.825Z,26.86
2024-05-09T02:28:22.880Z,26.86
2024-05-09T02:29:23.027Z,26.85
2024-05-09T02:30:30.574Z,26.85
2024-05-09T02:31:23.971Z,26.85
2024-05-09T02:32:23.034Z,26.83
2024-05-09T02:33:23.412Z,26.85
2024-05-09T02:34:23.146Z,26.86
2024-05-09T02:35:23.116Z,26.85
2024-05-09T02:36:22.968Z,26.86
2024-05-09T02:37:22.993Z,26.86
2024-05-09T02:38:23.062Z,26.85
2024-05-09T02:39:23.030Z,26.86
2024-05-09T02:41:23.103Z,26.83
2024-05-09T02:42:23.085Z,26.83
2024-05-09T02:43:23.086Z,26.83
2024-05-09T02:44:23.225Z,26.86
2024-05-09T02:45:23.151Z,26.86
2024-05-09T02:46:23.247Z,26.86
2024-05-09T02:47:23.414Z,26.87
2024-05-09T02:48:23.367Z,26.83
2024-05-09T02:49:23.441Z,26.83
2024-05-09T02:50:30.565Z,26.85
2024-05-09T02:51:24.367Z,26.85
2024-05-09T02:52:23.355Z,26.85
2024-05-09T02:53:23.416Z,26.85
2024-05-09T02:54:23.357Z,26.85
2024-05-09T02:55:23.369Z,26.86
2024-05-09T02:56:23.438Z,26.85
2024-05-09T02:57:23.390Z,26.83
2024-05-09T02:58:23.405Z,26.83
2024-05-09T02:59:23.515Z,26.86
2024-05-09T03:00:29.796Z,26.85
2024-05-09T03:01:24.418Z,26.86
2024-05-09T03:02:23.484Z,26.85
2024-05-09T03:03:23.811Z,26.85
2024-05-09T03:04:23.416Z,26.85
2024-05-09T03:05:23.431Z,26.83
2024-05-09T03:06:23.406Z,26.87
2024-05-09T03:07:23.410Z,26.85
2024-05-09T03:08:23.437Z,26.85
2024-05-09T03:09:23.379Z,26.83
2024-05-09T03:10:28.477Z,26.85
2024-05-09T03:11:24.553Z,26.83
2024-05-09T03:12:23.468Z,26.85
2024-05-09T03:13:23.394Z,26.83
2024-05-09T03:14:23.466Z,26.85
2024-05-09T03:15:23.426Z,26.83
2024-05-09T03:16:23.423Z,26.86
2024-05-09T03:17:23.584Z,26.82
2024-05-09T03:18:23.591Z,26.82
2024-05-09T03:19:23.515Z,26.83
2024-05-09T03:20:27.573Z,26.83
2024-05-09T03:21:24.425Z,26.83
2024-05-09T03:22:23.399Z,26.85
2024-05-09T03:23:23.564Z,26.85
2024-05-09T03:24:23.470Z,26.85
2024-05-09T03:25:23.447Z,26.85
2024-05-09T03:26:23.485Z,26.83
2024-05-09T03:27:23.423Z,26.80
2024-05-09T03:28:23.387Z,26.85
2024-05-09T03:29:23.415Z,26.82
2024-05-09T03:30:30.952Z,26.82
2024-05-09T03:31:24.409Z,26.83
2024-05-09T03:32:23.510Z,26.82
2024-05-09T03:33:23.849Z,26.82
2024-05-09T03:34:23.508Z,26.83
2024-05-09T03:35:23.625Z,26.82
2024-05-09T03:36:23.451Z,26.85
2024-05-09T03:37:23.417Z,26.82
2024-05-09T03:38:23.443Z,26.83
2024-05-09T03:39:23.435Z,26.85
2024-05-09T03:40:26.474Z,26.83
2024-05-09T03:41:24.495Z,26.82
2024-05-09T03:42:23.556Z,26.82
2024-05-09T03:43:23.447Z,26.82
2024-05-09T03:44:23.548Z,26.83
2024-05-09T03:45:23.425Z,26.82
2024-05-09T03:46:23.450Z,26.83
2024-05-09T03:47:23.734Z,26.80
2024-05-09T03:48:23.593Z,26.83
2024-05-09T03:49:23.543Z,26.80
2024-05-09T03:51:23.959Z,26.82
2024-05-09T03:52:23.423Z,26.83
2024-05-09T03:53:23.532Z,26.82
2024-05-09T03:54:23.536Z,26.83
2024-05-09T03:55:23.622Z,26.82
2024-05-09T03:56:23.667Z,26.82
2024-05-09T03:57:23.667Z,26.82
2024-05-09T03:58:23.693Z,26.82
2024-05-09T03:59:23.827Z,26.83
2024-05-09T04:00:31.200Z,26.82
2024-05-09T04:01:25.108Z,26.80
2024-05-09T04:02:24.140Z,26.85
2024-05-09T04:03:24.387Z,26.82
2024-05-09T04:04:24.172Z,26.80
2024-05-09T04:05:24.285Z,26.85
2024-05-09T04:06:24.237Z,26.82
2024-05-09T04:07:24.310Z,26.82
2024-05-09T04:08:24.513Z,26.82
2024-05-09T04:09:24.423Z,26.85
2024-05-09T04:10:31.249Z,26.83
2024-05-09T04:11:25.551Z,26.82
2024-05-09T04:12:24.496Z,26.80
2024-05-09T04:13:24.447Z,26.79
2024-05-09T04:14:24.497Z,26.79
2024-05-09T04:15:24.439Z,26.79
2024-05-09T04:16:24.470Z,26.78
2024-05-09T04:17:24.543Z,26.78
2024-05-09T04:18:24.587Z,26.78
2024-05-09T04:19:24.697Z,26.79
2024-05-09T04:20:33.940Z,26.80
2024-05-09T04:21:25.452Z,26.76
2024-05-09T04:22:24.513Z,26.75
2024-05-09T04:23:24.613Z,26.76
2024-05-09T04:24:31.799Z,26.73
2024-05-09T04:25:31.815Z,26.72
2024-05-09T04:26:31.846Z,26.72
2024-05-09T04:27:31.810Z,26.72
2024-05-09T04:28:31.825Z,26.73
2024-05-09T04:29:31.905Z,26.72
2024-05-09T04:30:37.809Z,26.70
2024-05-09T04:31:44.093Z,26.68
2024-05-09T04:32:44.105Z,26.70
2024-05-09T04:33:44.093Z,26.70
2024-05-09T04:34:43.940Z,26.69
2024-05-09T04:35:44.389Z,26.69
2024-05-09T04:36:44.734Z,26.70
2024-05-09T04:37:43.935Z,26.69
2024-05-09T04:38:43.931Z,26.73
2024-05-09T04:39:43.920Z,26.72
2024-05-09T04:40:43.927Z,26.72
2024-05-09T04:41:43.888Z,26.72
2024-05-09T04:42:43.912Z,26.72
2024-05-09T04:43:43.926Z,26.72
2024-05-09T04:44:43.891Z,26.73
2024-05-09T04:45:43.910Z,26.73
2024-05-09T04:46:43.999Z,26.73
2024-05-09T04:47:43.998Z,26.70
2024-05-09T04:48:44.026Z,26.73
2024-05-09T04:49:43.979Z,26.72
2024-05-09T04:50:44.147Z,26.73
2024-05-09T04:51:43.962Z,26.75
2024-05-09T04:52:43.983Z,26.76
2024-05-09T04:53:44.115Z,26.75
2024-05-09T04:54:43.925Z,26.73
2024-05-09T04:55:43.935Z,26.73
2024-05-09T04:56:43.968Z,26.73
2024-05-09T04:57:43.888Z,26.75
2024-05-09T04:58:43.923Z,26.76
2024-05-09T04:59:43.910Z,26.76
2024-05-09T05:00:43.980Z,26.75
2024-05-09T05:01:43.962Z,26.76
2024-05-09T05:02:44.019Z,26.76
2024-05-09T05:03:44.180Z,26.75
2024-05-09T05:04:44.043Z,26.76
2024-05-09T05:05:45.209Z,26.76
2024-05-09T05:06:43.962Z,26.76
2024-05-09T05:07:44.006Z,26.78
2024-05-09T05:08:43.918Z,26.78
2024-05-09T05:09:43.975Z,26.78
2024-05-09T05:10:43.990Z,26.79
2024-05-09T05:11:44.062Z,26.79
2024-05-09T05:12:43.917Z,26.78
2024-05-09T05:13:44.052Z,26.78
2024-05-09T05:14:44.010Z,26.76
2024-05-09T05:15:44.018Z,26.76
2024-05-09T05:16:44.025Z,26.78
2024-05-09T05:17:44.162Z,26.79
2024-05-09T05:18:44.228Z,26.78
2024-05-09T05:19:44.333Z,26.78
2024-05-09T05:20:44.340Z,26.76
2024-05-09T05:21:44.192Z,26.78
2024-05-09T05:22:44.272Z,26.79
2024-05-09T05:23:44.344Z,26.76
2024-05-09T05:24:44.326Z,26.79
2024-05-09T05:25:44.614Z,26.78
2024-05-09T05:26:44.496Z,26.78
2024-05-09T05:27:44.405Z,26.79
2024-05-09T05:28:44.494Z,26.78
2024-05-09T05:29:44.563Z,26.78
2024-05-09T05:30:44.545Z,26.79
2024-05-09T05:31:44.652Z,26.79
2024-05-09T05:32:44.717Z,26.76
2024-05-09T05:33:44.755Z,26.80
2024-05-09T05:34:44.664Z,26.79
2024-05-09T05:35:44.735Z,26.79
2024-05-09T05:36:44.772Z,26.80
2024-05-09T05:37:44.849Z,26.78
2024-05-09T05:38:44.892Z,26.79
2024-05-09T05:39:44.835Z,26.78
2024-05-09T05:40:44.993Z,26.80
2024-05-09T05:41:44.909Z,26.79
2024-05-09T05:42:44.918Z,26.79
2024-05-09T05:43:45.008Z,26.80
2024-05-09T05:44:45.032Z,26.78
2024-05-09T05:45:45.060Z,26.79
2024-05-09T05:46:45.136Z,26.79
2024-05-09T05:47:45.470Z,26.78
2024-05-09T05:48:45.291Z,26.78
2024-05-09T05:49:45.218Z,26.80
2024-05-09T05:50:45.432Z,26.78
2024-05-09T05:51:45.286Z,26.80
2024-05-09T05:52:45.341Z,26.79
2024-05-09T05:53:45.364Z,26.80
2024-05-09T05:54:45.342Z,26.79
2024-05-09T05:55:45.460Z,26.82
2024-05-09T05:56:45.542Z,26.80
2024-05-09T05:57:45.533Z,26.80
2024-05-09T05:58:45.667Z,26.80
2024-05-09T05:59:45.570Z,26.80
2024-05-09T06:00:45.663Z,26.78
2024-05-09T06:01:45.637Z,26.79
2024-05-09T06:02:45.792Z,26.82
2024-05-09T06:03:45.775Z,26.80
2024-05-09T06:04:45.801Z,26.82
2024-05-09T06:05:45.898Z,26.79
2024-05-09T06:06:45.798Z,26.79
2024-05-09T06:07:45.820Z,26.80
2024-05-09T06:08:45.916Z,26.80
2024-05-09T06:09:48.204Z,26.80
2024-05-09T06:10:46.190Z,26.82
2024-05-09T06:11:45.943Z,26.79
2024-05-09T06:12:45.878Z,26.80
2024-05-09T06:13:45.963Z,26.80
2024-05-09T06:14:45.894Z,26.80
2024-05-09T06:15:45.892Z,26.79
2024-05-09T06:16:45.934Z,26.82
2024-05-09T06:17:46.094Z,26.82
2024-05-09T06:18:45.965Z,26.82
2024-05-09T06:19:45.999Z,26.82
2024-05-09T06:20:45.993Z,26.80
2024-05-09T06:21:45.904Z,26.83
2024-05-09T06:22:45.991Z,26.82
2024-05-09T06:23:45.942Z,26.82
2024-05-09T06:24:45.976Z,26.82
2024-05-09T06:25:46.098Z,26.86
2024-05-09T06:26:45.886Z,26.82
2024-05-09T06:27:45.874Z,26.86
2024-05-09T06:28:45.983Z,26.83
2024-05-09T06:29:45.881Z,26.83
2024-05-09T06:30:45.903Z,26.85
2024-05-09T06:31:45.917Z,26.86
2024-05-09T06:32:45.977Z,26.85
2024-05-09T06:33:45.980Z,26.85
2024-05-09T06:34:46.036Z,26.82
2024-05-09T06:35:46.105Z,26.85
2024-05-09T06:36:45.893Z,26.83
2024-05-09T06:37:45.920Z,26.87
2024-05-09T06:38:45.949Z,26.83
2024-05-09T06:39:45.917Z,26.83
2024-05-09T06:40:45.969Z,26.83
2024-05-09T06:41:45.954Z,26.85
2024-05-09T06:42:45.940Z,26.86
2024-05-09T06:43:45.978Z,26.85
2024-05-09T06:44:45.957Z,26.87
2024-05-09T06:45:46.060Z,26.85
2024-05-09T06:46:46.112Z,26.86
2024-05-09T06:47:46.258Z,26.87
2024-05-09T06:48:46.571Z,26.86
2024-05-09T06:49:46.283Z,26.87
2024-05-09T06:50:46.354Z,26.89
2024-05-09T06:51:46.307Z,26.87
2024-05-09T06:52:46.385Z,26.86
2024-05-09T06:53:46.483Z,26.85
2024-05-09T06:54:46.424Z,26.87
2024-05-09T06:55:46.511Z,26.86
2024-05-09T06:56:46.553Z,26.87
2024-05-09T06:57:46.515Z,26.89
2024-05-09T06:58:46.675Z,26.90
2024-05-09T06:59:46.721Z,26.87
2024-05-09T07:00:46.716Z,26.87
2024-05-09T07:01:46.746Z,26.89
2024-05-09T07:02:46.930Z,26.87
2024-05-09T07:03:46.900Z,26.87
2024-05-09T07:04:47.070Z,26.86
2024-05-09T07:05:48.187Z,26.89
2024-05-09T07:06:46.887Z,26.87
2024-05-09T07:07:47.006Z,26.86
2024-05-09T07:08:48.585Z,26.87
2024-05-09T07:09:47.092Z,26.87
2024-05-09T07:10:47.265Z,26.89
2024-05-09T07:11:47.267Z,26.87
2024-05-09T07:12:47.584Z,26.87
2024-05-09T07:13:47.406Z,26.87
2024-05-09T07:14:47.520Z,26.89
2024-05-09T07:15:47.422Z,26.87
2024-05-09T07:16:47.697Z,26.87
2024-05-09T07:17:47.715Z,26.87
2024-05-09T07:18:47.744Z,26.87
2024-05-09T07:19:47.803Z,26.89
2024-05-09T07:20:48.418Z,26.90
2024-05-09T07:21:47.753Z,26.87
2024-05-09T07:22:47.819Z,26.87
2024-05-09T07:23:47.917Z,26.87
2024-05-09T07:24:47.805Z,26.91
2024-05-09T07:25:48.064Z,26.89
2024-05-09T07:26:47.958Z,26.89
2024-05-09T07:27:47.991Z,26.90
2024-05-09T07:28:48.076Z,26.87
2024-05-09T07:29:48.208Z,26.89
2024-05-09T07:30:48.256Z,26.89
2024-05-09T07:31:49.109Z,26.89
2024-05-09T07:32:48.465Z,26.90
2024-05-09T07:33:48.366Z,26.90
2024-05-09T07:34:48.390Z,26.89
2024-05-09T07:35:48.464Z,26.90
2024-05-09T07:36:48.465Z,26.90
2024-05-09T07:37:48.505Z,26.90
2024-05-09T07:38:48.523Z,26.90
2024-05-09T07:39:48.528Z,26.91
2024-05-09T07:40:48.683Z,26.90
2024-05-09T07:41:48.646Z,26.91
2024-05-09T07:42:48.754Z,26.91
2024-05-09T07:43:48.812Z,26.91
2024-05-09T07:44:48.761Z,26.91
2024-05-09T07:45:53.447Z,26.89
2024-05-09T07:47:52.190Z,26.93
2024-05-09T07:49:13.661Z,26.93
2024-05-09T07:53:17.534Z,26.91
2024-05-09T07:53:35.251Z,26.94
2024-05-09T07:53:52.525Z,26.93
2024-05-09T07:54:50.017Z,26.91
2024-05-09T07:55:48.972Z,26.93
2024-05-09T07:56:49.014Z,26.94
2024-05-09T07:57:48.873Z,26.94
2024-05-09T07:58:48.865Z,26.96
2024-05-09T07:59:48.888Z,26.96
2024-05-09T08:00:48.929Z,26.96
2024-05-09T08:01:48.876Z,26.94
2024-05-09T08:02:48.851Z,26.96
2024-05-09T08:03:49.085Z,26.93
2024-05-09T08:04:49.019Z,26.96
2024-05-09T08:05:48.929Z,26.96
2024-05-09T08:06:48.847Z,26.94
2024-05-09T08:07:48.869Z,26.94
2024-05-09T08:08:49.147Z,26.97
2024-05-09T08:09:48.907Z,26.97
2024-05-09T08:10:48.850Z,26.93
2024-05-09T08:11:48.909Z,26.96
2024-05-09T08:12:48.975Z,26.96
2024-05-09T08:13:48.862Z,26.96
2024-05-09T08:14:48.880Z,26.97
2024-05-09T08:15:48.930Z,26.99
2024-05-09T08:16:48.865Z,26.97
2024-05-09T08:17:48.989Z,26.96
2024-05-09T08:18:48.997Z,26.96
2024-05-09T08:19:48.896Z,26.97
2024-05-09T08:20:48.950Z,26.99
2024-05-09T08:21:48.995Z,26.99
2024-05-09T08:22:48.967Z,26.97
2024-05-09T08:23:49.038Z,26.97
2024-05-09T08:24:49.108Z,26.97
2024-05-09T08:25:49.136Z,26.99
2024-05-09T08:26:49.214Z,26.99
2024-05-09T08:27:49.251Z,27.00
2024-05-09T08:28:49.266Z,26.97
2024-05-09T08:29:49.401Z,26.97
2024-05-09T08:30:49.523Z,26.99
2024-05-09T08:31:49.431Z,26.99
2024-05-09T08:32:49.492Z,26.99
2024-05-09T08:33:49.645Z,26.99
2024-05-09T08:34:49.593Z,26.99
2024-05-09T08:35:49.608Z,26.99
2024-05-09T08:36:49.666Z,26.99
2024-05-09T08:37:49.720Z,27.00
2024-05-09T08:38:49.690Z,26.99
2024-05-09T08:39:49.735Z,27.00
2024-05-09T08:40:49.995Z,26.99
2024-05-09T08:41:49.892Z,27.03
2024-05-09T08:42:49.949Z,27.01
2024-05-09T08:43:49.971Z,27.00
2024-05-09T08:44:50.065Z,27.00
2024-05-09T08:45:50.279Z,27.01
2024-05-09T08:46:50.091Z,27.01
2024-05-09T08:47:50.241Z,27.03
2024-05-09T08:48:50.467Z,27.01
2024-05-09T08:49:50.299Z,27.03
2024-05-09T08:50:50.330Z,26.99
2024-05-09T08:51:50.336Z,27.04
2024-05-09T08:52:50.405Z,27.03
2024-05-09T08:53:50.456Z,27.00
2024-05-09T08:54:50.533Z,27.01
2024-05-09T08:55:50.523Z,27.03
2024-05-09T08:56:50.559Z,27.04
2024-05-09T08:57:50.678Z,27.03
2024-05-09T08:58:50.687Z,27.03
2024-05-09T08:59:50.768Z,27.04
2024-05-09T09:00:50.933Z,27.04
2024-05-09T09:01:50.814Z,27.03
2024-05-09T09:02:50.990Z,27.04
2024-05-09T09:03:50.957Z,27.06
2024-05-09T09:04:51.024Z,27.04
2024-05-09T09:05:50.995Z,27.04
2024-05-09T09:06:52.550Z,27.06
2024-05-09T09:07:51.012Z,27.03
2024-05-09T09:08:51.068Z,27.03
2024-05-09T09:09:51.140Z,27.03
2024-05-09T09:10:51.197Z,27.03
2024-05-09T09:11:51.226Z,27.01
2024-05-09T09:12:51.274Z,27.06
2024-05-09T09:13:51.312Z,27.01
2024-05-09T09:14:51.372Z,27.04
2024-05-09T09:15:51.413Z,27.01
2024-05-09T09:16:51.495Z,27.01
2024-05-09T09:17:51.597Z,27.06
2024-05-09T09:18:51.822Z,27.03
2024-05-09T09:19:51.626Z,27.04
2024-05-09T09:20:51.619Z,27.06
2024-05-09T09:21:51.679Z,27.07
2024-05-09T09:22:51.732Z,27.04
2024-05-09T09:23:51.751Z,27.06
2024-05-09T09:24:51.889Z,27.06
2024-05-09T09:25:51.868Z,27.06
2024-05-09T09:26:51.900Z,27.06
2024-05-09T09:27:51.944Z,27.06
2024-05-09T09:28:51.982Z,27.04
2024-05-09T09:29:51.991Z,27.06
2024-05-09T09:30:52.142Z,27.07
2024-05-09T09:31:52.082Z,27.04
2024-05-09T09:32:52.238Z,27.04
2024-05-09T09:33:52.379Z,27.06
2024-05-09T09:34:52.222Z,27.06
2024-05-09T09:35:52.245Z,27.09
2024-05-09T09:36:52.320Z,27.06
2024-05-09T09:37:52.344Z,27.04
2024-05-09T09:38:52.386Z,27.04
2024-05-09T09:39:52.509Z,27.07
2024-05-09T09:40:52.570Z,27.06
2024-05-09T09:41:52.516Z,27.04
2024-05-09T09:42:52.641Z,27.06
2024-05-09T09:43:52.643Z,27.09
2024-05-09T09:45:01.953Z,27.09
2024-05-09T09:45:54.075Z,27.06
2024-05-09T09:46:52.747Z,27.09
2024-05-09T09:47:52.909Z,27.06
2024-05-09T09:48:52.730Z,27.07
2024-05-09T09:49:52.703Z,27.06
2024-05-09T09:50:52.737Z,27.07
2024-05-09T09:51:52.761Z,27.07
2024-05-09T09:52:52.721Z,27.09
2024-05-09T09:53:52.693Z,27.07
2024-05-09T09:54:52.751Z,27.07
2024-05-09T09:55:52.779Z,27.07
2024-05-09T09:56:52.739Z,27.09
2024-05-09T09:57:52.832Z,27.07
2024-05-09T09:58:52.872Z,27.09
2024-05-09T09:59:52.983Z,27.09
2024-05-09T10:00:53.014Z,27.07
2024-05-09T10:01:53.221Z,27.10
2024-05-09T10:02:53.036Z,27.07
2024-05-09T10:03:53.354Z,27.06
2024-05-09T10:04:53.251Z,27.09
2024-05-09T10:05:53.227Z,27.06
2024-05-09T10:06:53.232Z,27.07
2024-05-09T10:07:53.246Z,27.07
2024-05-09T10:08:53.322Z,27.07
2024-05-09T10:09:53.335Z,27.10
2024-05-09T10:10:53.493Z,27.10
2024-05-09T10:11:59.708Z,27.09
2024-05-09T10:12:54.430Z,27.10
2024-05-09T10:13:53.456Z,27.10
2024-05-09T10:14:53.385Z,27.07
2024-05-09T10:15:53.966Z,27.07
2024-05-09T10:16:53.384Z,27.10
2024-05-09T10:17:53.441Z,27.07
2024-05-09T10:18:53.606Z,27.07
2024-05-09T10:19:53.446Z,27.09
2024-05-09T10:20:53.405Z,27.10
2024-05-09T10:21:53.410Z,27.11
2024-05-09T10:22:53.425Z,27.07
2024-05-09T10:23:53.428Z,27.10
2024-05-09T10:24:53.528Z,27.11
2024-05-09T10:25:53.476Z,27.07
2024-05-09T10:26:53.520Z,27.10
2024-05-09T10:27:53.590Z,27.11
2024-05-09T10:28:53.601Z,27.09
2024-05-09T10:29:53.667Z,27.11
2024-05-09T10:30:53.790Z,27.09
2024-05-09T10:31:53.792Z,27.07
2024-05-09T10:32:54.253Z,27.10
2024-05-09T10:33:53.993Z,27.09
2024-05-09T10:34:53.957Z,27.10
2024-05-09T10:35:53.919Z,27.10
2024-05-09T10:36:54.097Z,27.11
2024-05-09T10:37:54.031Z,27.06
2024-05-09T10:38:54.121Z,27.10
2024-05-09T10:39:54.217Z,27.07
2024-05-09T10:40:54.175Z,27.10
2024-05-09T10:41:54.195Z,27.07
2024-05-09T10:42:54.305Z,27.09
2024-05-09T10:43:54.264Z,27.10
2024-05-09T10:44:54.349Z,27.10
2024-05-09T10:45:54.388Z,27.09
2024-05-09T10:46:54.474Z,27.09
2024-05-09T10:47:54.569Z,27.13
2024-05-09T10:48:54.535Z,27.11
2024-05-09T10:49:54.656Z,27.11
2024-05-09T10:50:54.595Z,27.09
2024-05-09T10:51:54.674Z,27.14
2024-05-09T10:52:54.653Z,27.11
2024-05-09T10:53:54.710Z,27.11
2024-05-09T10:54:54.846Z,27.10
2024-05-09T10:55:54.774Z,27.13
2024-05-09T10:56:54.839Z,27.11
2024-05-09T10:57:54.963Z,27.10
2024-05-09T10:58:54.936Z,27.11
2024-05-09T10:59:54.962Z,27.11
2024-05-09T11:00:55.260Z,27.13
2024-05-09T11:01:55.090Z,27.13
2024-05-09T11:02:55.198Z,27.11
2024-05-09T11:03:55.248Z,27.13
2024-05-09T11:04:55.382Z,27.11
2024-05-09T11:05:55.258Z,27.13
2024-05-09T11:06:55.680Z,27.13
2024-05-09T11:07:55.329Z,27.11
2024-05-09T11:08:55.341Z,27.10
2024-05-09T11:09:55.435Z,27.14
2024-05-09T11:10:55.520Z,27.10
2024-05-09T11:11:55.592Z,27.11
2024-05-09T11:12:55.564Z,27.11
2024-05-09T11:13:55.563Z,27.10
2024-05-09T11:14:55.623Z,27.13
2024-05-09T11:15:55.747Z,27.13
2024-05-09T11:16:55.758Z,27.14
2024-05-09T11:17:55.913Z,27.13
2024-05-09T11:18:56.302Z,27.14
2024-05-09T11:19:55.881Z,27.11
2024-05-09T11:20:55.887Z,27.13
2024-05-09T11:21:55.992Z,27.14
2024-05-09T11:22:55.937Z,27.14
2024-05-09T11:23:56.006Z,27.13
2024-05-09T11:24:56.045Z,27.13
2024-05-09T11:25:56.059Z,27.14
2024-05-09T11:26:56.080Z,27.13
2024-05-09T11:27:56.183Z,27.14
2024-05-09T11:28:56.193Z,27.14
2024-05-09T11:29:56.190Z,27.13
2024-05-09T11:30:56.308Z,27.13
2024-05-09T11:31:56.371Z,27.15
2024-05-09T11:32:56.517Z,27.13
2024-05-09T11:33:56.742Z,27.15
2024-05-09T11:34:56.423Z,27.15
2024-05-09T11:35:56.410Z,27.15
2024-05-09T11:36:56.547Z,27.14
2024-05-09T11:37:56.525Z,27.17
2024-05-09T11:38:56.562Z,27.15
2024-05-09T11:39:56.709Z,27.15
2024-05-09T11:40:56.589Z,27.15
2024-05-09T11:41:56.643Z,27.14
2024-05-09T11:42:56.740Z,27.14
2024-05-09T11:43:56.695Z,27.17
2024-05-09T11:44:56.760Z,27.17
2024-05-09T11:45:56.853Z,27.17
2024-05-09T11:46:56.897Z,27.15
2024-05-09T11:47:56.958Z,27.14
2024-05-09T11:48:57.027Z,27.15
2024-05-09T11:49:57.094Z,27.18
2024-05-09T11:50:57.055Z,27.15
2024-05-09T11:51:57.115Z,27.17
2024-05-09T11:52:57.112Z,27.17
2024-05-09T11:53:57.144Z,27.17
2024-05-09T11:54:57.216Z,27.17
2024-05-09T11:55:57.252Z,27.18
2024-05-09T11:56:57.258Z,27.18
2024-05-09T11:57:57.344Z,27.20
2024-05-09T11:58:57.341Z,27.17
2024-05-09T11:59:57.423Z,27.20
2024-05-09T12:00:57.531Z,27.18
2024-05-09T12:01:57.527Z,27.20
2024-05-09T12:02:57.564Z,27.15
2024-05-09T12:03:57.917Z,27.18
2024-05-09T12:04:57.699Z,27.18
2024-05-09T12:05:57.735Z,27.17
2024-05-09T12:06:57.667Z,27.18
2024-05-09T12:07:57.693Z,27.21
2024-05-09T12:08:57.749Z,27.20
2024-05-09T12:09:57.892Z,27.20
2024-05-09T12:10:57.927Z,27.21
2024-05-09T12:11:57.915Z,27.23
2024-05-09T12:12:57.995Z,27.18
2024-05-09T12:13:57.931Z,27.17
2024-05-09T12:14:57.969Z,27.20
2024-05-09T12:15:58.018Z,27.20
2024-05-09T12:16:58.077Z,27.20
2024-05-09T12:18:00.237Z,27.21
2024-05-09T12:18:58.238Z,27.23
2024-05-09T12:19:58.136Z,27.20
2024-05-09T12:20:58.146Z,27.20
2024-05-09T12:21:58.138Z,27.20
2024-05-09T12:22:58.091Z,27.20
2024-05-09T12:23:58.097Z,27.20
2024-05-09T12:24:58.129Z,27.23
2024-05-09T12:25:58.128Z,27.20
2024-05-09T12:26:58.124Z,27.23
2024-05-09T12:27:58.129Z,27.23
2024-05-09T12:28:58.136Z,27.23
2024-05-09T12:29:58.204Z,27.20
2024-05-09T12:30:58.336Z,27.21
2024-05-09T12:31:58.164Z,27.24
2024-05-09T12:32:58.316Z,27.20
2024-05-09T12:33:58.155Z,27.21
2024-05-09T12:34:58.112Z,27.23
2024-05-09T12:35:58.110Z,27.24
2024-05-09T12:36:58.242Z,27.23
2024-05-09T12:37:58.110Z,27.23
2024-05-09T12:38:58.143Z,27.20
2024-05-09T12:39:58.184Z,27.24
2024-05-09T12:40:58.257Z,27.21
2024-05-09T12:41:58.261Z,27.24
2024-05-09T12:42:58.366Z,27.24
2024-05-09T12:43:58.343Z,27.26
2024-05-09T12:44:58.405Z,27.24
2024-05-09T12:45:58.466Z,27.23
2024-05-09T12:46:58.456Z,27.24
2024-05-09T12:47:58.693Z,27.23
2024-05-09T12:48:58.838Z,27.24
2024-05-09T12:49:58.637Z,27.24
2024-05-09T12:50:58.699Z,27.26
2024-05-09T12:51:58.760Z,27.26
2024-05-09T12:52:58.708Z,27.24
2024-05-09T12:53:58.775Z,27.26
2024-05-09T12:54:58.828Z,27.27
2024-05-09T12:56:02.263Z,27.26
2024-05-09T12:56:58.846Z,27.27
2024-05-09T12:57:58.926Z,27.26
2024-05-09T12:58:58.824Z,27.27